createdAt,value
2023-05-15T00:01:50.586Z,0.82
2023-05-15T00:04:18.934Z,0.73
2023-05-15T00:06:47.288Z,0.95
2023-05-15T00:09:16.946Z,0.88
2023-05-15T00:11:45.216Z,0.77
2023-05-15T00:14:13.522Z,0.80
2023-05-15T00:16:41.947Z,0.60
2023-05-15T00:19:10.589Z,0.60
2023-05-15T00:21:39.189Z,0.80
2023-05-15T00:24:07.665Z,0.73
2023-05-15T00:26:37.931Z,0.80
2023-05-15T00:29:06.291Z,0.75
2023-05-15T00:31:34.700Z,0.82
2023-05-15T00:34:03.078Z,0.95
2023-05-15T00:36:31.803Z,0.98
2023-05-15T00:39:00.230Z,0.85
2023-05-15T00:41:32.026Z,0.63
2023-05-15T00:44:02.123Z,1.23
2023-05-15T00:46:32.271Z,0.57
2023-05-15T00:49:01.270Z,0.98
2023-05-15T00:51:29.596Z,0.75
2023-05-15T00:53:57.999Z,0.57
2023-05-15T00:56:26.514Z,0.40
2023-05-15T00:58:55.773Z,0.80
2023-05-15T01:01:26.132Z,0.80
2023-05-15T01:03:54.461Z,0.77
2023-05-15T01:06:22.758Z,0.80
2023-05-15T01:08:51.559Z,0.93
2023-05-15T01:11:19.840Z,0.65
2023-05-15T01:13:48.232Z,0.98
2023-05-15T01:16:16.579Z,1.08
2023-05-15T01:18:46.383Z,1.42
2023-05-15T01:21:29.278Z,0.90
2023-05-15T01:24:03.550Z,1.13
2023-05-15T01:26:54.757Z,0.90
2023-05-15T01:29:26.335Z,0.82
2023-05-15T01:31:56.424Z,1.25
2023-05-15T01:34:25.649Z,1.15
2023-05-15T01:36:55.799Z,1.10
2023-05-15T01:39:26.591Z,1.23
2023-05-15T01:41:56.828Z,1.00
2023-05-15T01:44:28.686Z,0.82
2023-05-15T01:46:57.885Z,0.70
2023-05-15T01:49:28.044Z,0.93
2023-05-15T01:51:59.138Z,1.15
2023-05-15T01:54:29.390Z,0.75
2023-05-15T01:56:58.971Z,1.27
2023-05-15T01:59:28.696Z,1.23
2023-05-15T02:01:57.837Z,1.23
2023-05-15T02:04:26.839Z,1.05
2023-05-15T02:06:55.560Z,0.98
2023-05-15T02:09:24.605Z,1.15
2023-05-15T02:11:53.182Z,1.38
2023-05-15T02:14:22.227Z,1.20
2023-05-15T02:16:52.682Z,1.40
2023-05-15T02:19:22.572Z,1.40
2023-05-15T02:21:51.249Z,1.05
2023-05-15T02:24:19.542Z,0.70
2023-05-15T02:26:52.312Z,1.20
2023-05-15T02:29:21.890Z,1.45
2023-05-15T02:31:59.057Z,1.38
2023-05-15T02:34:29.770Z,1.05
2023-05-15T02:37:02.622Z,1.02
2023-05-15T02:39:31.169Z,1.10
2023-05-15T02:42:01.310Z,1.65
2023-05-15T02:44:29.835Z,1.20
2023-05-15T02:46:59.973Z,0.70
2023-05-15T02:49:28.264Z,0.98
2023-05-15T02:51:56.553Z,1.27
2023-05-15T02:54:24.786Z,1.88
2023-05-15T02:56:53.072Z,1.25
2023-05-15T02:59:21.370Z,2.13
2023-05-15T03:01:49.786Z,1.88
2023-05-15T03:04:19.659Z,1.98
2023-05-15T03:06:47.955Z,1.67
2023-05-15T03:09:16.506Z,1.52
2023-05-15T03:11:44.867Z,1.83
2023-05-15T03:14:13.146Z,1.05
2023-05-15T03:16:41.452Z,1.90
2023-05-15T03:19:09.872Z,1.42
2023-05-15T03:21:39.597Z,1.38
2023-05-15T03:24:08.233Z,1.60
2023-05-15T03:26:36.595Z,1.48
2023-05-15T03:29:04.853Z,2.10
2023-05-15T03:31:33.229Z,2.42
2023-05-15T03:34:01.536Z,1.80
2023-05-15T03:36:29.877Z,1.48
2023-05-15T03:38:59.482Z,2.17
2023-05-15T03:41:27.939Z,2.20
2023-05-15T03:43:56.235Z,2.28
2023-05-15T03:46:24.578Z,1.23
2023-05-15T03:48:54.793Z,2.05
2023-05-15T03:51:23.764Z,1.38
2023-05-15T03:53:52.104Z,1.63
2023-05-15T03:56:21.804Z,1.30
2023-05-15T03:58:50.171Z,1.83
2023-05-15T04:01:18.528Z,1.38
2023-05-15T04:03:47.090Z,1.80
2023-05-15T04:06:15.405Z,2.08
2023-05-15T04:08:43.825Z,1.50
2023-05-15T04:11:12.590Z,1.27
2023-05-15T04:13:42.259Z,1.45
2023-05-15T04:16:10.555Z,1.83
2023-05-15T04:18:38.871Z,2.20
2023-05-15T04:21:07.206Z,1.48
2023-05-15T04:23:35.507Z,1.27
2023-05-15T04:26:03.809Z,1.05
2023-05-15T04:28:32.627Z,0.98
2023-05-15T04:31:02.506Z,1.58
2023-05-15T04:33:30.808Z,1.27
2023-05-15T04:35:59.510Z,1.20
2023-05-15T04:38:27.785Z,0.85
2023-05-15T04:40:56.085Z,1.50
2023-05-15T04:43:24.346Z,1.02
2023-05-15T04:45:52.696Z,1.48
2023-05-15T04:48:22.417Z,1.75
2023-05-15T04:50:51.167Z,1.52
2023-05-15T04:53:19.467Z,1.27
2023-05-15T04:55:51.229Z,1.92
2023-05-15T04:58:19.569Z,1.95
2023-05-15T05:00:47.841Z,2.20
2023-05-15T05:03:16.191Z,1.55
2023-05-15T05:05:46.016Z,1.58
2023-05-15T05:08:14.292Z,1.60
2023-05-15T05:10:43.754Z,1.20
2023-05-15T05:13:12.059Z,1.90
2023-05-15T05:15:40.433Z,1.88
2023-05-15T05:18:08.982Z,2.28
2023-05-15T05:20:37.346Z,2.00
2023-05-15T05:23:07.041Z,1.58
2023-05-15T05:25:35.585Z,2.28
2023-05-15T05:28:03.912Z,2.63
2023-05-15T05:30:32.223Z,1.73
2023-05-15T05:33:00.640Z,1.13
2023-05-15T05:35:28.968Z,1.90
2023-05-15T05:37:57.301Z,1.38
2023-05-15T05:40:29.306Z,2.05
2023-05-15T05:43:00.532Z,1.27
2023-05-15T05:45:28.789Z,1.77
2023-05-15T05:47:57.323Z,2.55
2023-05-15T05:50:25.796Z,1.70
2023-05-15T05:52:54.059Z,2.33
2023-05-15T05:55:22.491Z,1.38
2023-05-15T05:57:52.554Z,1.50
2023-05-15T06:00:21.406Z,2.05
2023-05-15T06:02:49.914Z,1.95
2023-05-15T06:05:18.269Z,1.60
2023-05-15T06:07:46.785Z,2.47
2023-05-15T06:10:15.066Z,1.85
2023-05-15T06:12:43.363Z,2.15
2023-05-15T06:15:13.524Z,2.38
2023-05-15T06:17:41.909Z,1.60
2023-05-15T06:20:10.757Z,1.50
2023-05-15T06:22:39.490Z,2.10
2023-05-15T06:25:11.324Z,1.70
2023-05-15T06:27:39.616Z,2.15
2023-05-15T06:30:08.515Z,1.38
2023-05-15T06:32:38.232Z,2.42
2023-05-15T06:35:06.853Z,1.58
2023-05-15T06:37:35.286Z,1.77
2023-05-15T06:40:04.144Z,2.33
2023-05-15T06:42:32.517Z,3.13
2023-05-15T06:45:00.819Z,1.95
2023-05-15T06:47:29.221Z,1.70
2023-05-15T06:49:58.941Z,1.75
2023-05-15T06:52:27.264Z,1.67
2023-05-15T06:54:55.570Z,3.10
2023-05-15T06:57:23.868Z,2.13
2023-05-15T06:59:52.188Z,1.50
2023-05-15T07:02:20.535Z,2.00
2023-05-15T07:04:48.918Z,1.77
2023-05-15T07:07:18.568Z,2.15
2023-05-15T07:09:48.396Z,1.10
2023-05-15T07:12:16.804Z,2.08
2023-05-15T07:14:45.085Z,1.90
2023-05-15T07:17:13.739Z,1.27
2023-05-15T07:19:42.050Z,1.02
2023-05-15T07:22:10.393Z,1.55
2023-05-15T07:24:40.702Z,1.50
2023-05-15T07:27:09.063Z,2.17
2023-05-15T07:29:37.396Z,2.08
2023-05-15T07:32:06.091Z,1.80
2023-05-15T07:34:34.454Z,1.70
2023-05-15T07:37:02.769Z,1.70
2023-05-15T07:39:31.293Z,1.40
2023-05-15T07:42:00.965Z,1.33
2023-05-15T07:44:29.281Z,1.75
2023-05-15T07:46:57.817Z,2.05
2023-05-15T07:49:26.219Z,1.35
2023-05-15T07:51:54.520Z,1.50
2023-05-15T07:54:22.831Z,0.88
2023-05-15T07:56:51.149Z,1.50
2023-05-15T07:59:21.433Z,1.67
2023-05-15T08:01:49.732Z,0.90
2023-05-15T08:04:18.055Z,1.25
2023-05-15T08:06:46.440Z,1.00
2023-05-15T08:09:14.801Z,1.13
2023-05-15T08:11:43.138Z,1.00
2023-05-15T08:14:13.682Z,1.17
2023-05-15T08:16:43.618Z,0.82
2023-05-15T08:19:12.140Z,1.40
2023-05-15T08:21:40.878Z,0.98
2023-05-15T08:24:09.443Z,0.98
2023-05-15T08:26:37.732Z,1.08
2023-05-15T08:29:06.124Z,1.20
2023-05-15T08:31:34.494Z,1.20
2023-05-15T08:34:04.216Z,1.15
2023-05-15T08:36:32.730Z,1.05
2023-05-15T08:39:01.091Z,1.20
2023-05-15T08:41:40.406Z,1.73
2023-05-15T08:44:10.479Z,0.93
2023-05-15T08:46:39.211Z,1.27
2023-05-15T08:49:13.352Z,1.13
2023-05-15T08:51:41.891Z,1.10
2023-05-15T08:54:10.442Z,1.25
2023-05-15T08:56:38.899Z,1.20
2023-05-15T08:59:07.646Z,1.20
2023-05-15T09:01:36.081Z,1.17
2023-05-15T09:04:04.606Z,1.02
2023-05-15T09:06:35.347Z,0.73
2023-05-15T09:09:05.282Z,1.25
2023-05-15T09:11:33.962Z,1.25
2023-05-15T09:14:02.310Z,1.23
2023-05-15T09:16:30.697Z,0.85
2023-05-15T09:19:00.897Z,1.17
2023-05-15T09:21:31.155Z,1.30
2023-05-15T09:24:17.101Z,1.55
2023-05-15T09:26:47.151Z,1.10
2023-05-15T09:29:18.920Z,1.13
2023-05-15T09:31:48.367Z,1.33
2023-05-15T09:34:16.837Z,1.00
2023-05-15T09:36:45.856Z,0.90
2023-05-15T09:39:14.312Z,1.27
2023-05-15T09:41:45.205Z,1.33
2023-05-15T09:44:22.006Z,0.85
2023-05-15T09:46:52.684Z,0.80
2023-05-15T09:49:21.129Z,1.00
2023-05-15T09:51:50.445Z,1.25
2023-05-15T09:54:19.594Z,1.35
2023-05-15T09:56:48.726Z,0.70
2023-05-15T09:59:17.775Z,1.38
2023-05-15T10:01:48.227Z,0.80
2023-05-15T10:04:16.982Z,1.40
2023-05-15T10:06:47.111Z,0.90
2023-05-15T10:09:15.989Z,1.35
2023-05-15T10:11:45.216Z,1.02
2023-05-15T10:14:14.604Z,1.42
2023-05-15T10:16:43.051Z,0.80
2023-05-15T10:19:13.614Z,1.45
2023-05-15T10:21:42.637Z,1.27
2023-05-15T10:24:10.967Z,0.95
2023-05-15T10:26:39.977Z,1.23
2023-05-15T10:29:09.024Z,1.23
2023-05-15T10:31:37.486Z,1.58
2023-05-15T10:34:06.212Z,1.20
2023-05-15T10:36:36.750Z,1.33
2023-05-15T10:39:06.136Z,1.83
2023-05-15T10:41:35.198Z,1.50
2023-05-15T10:44:03.862Z,0.93
2023-05-15T10:46:33.472Z,1.00
2023-05-15T10:49:02.041Z,1.75
2023-05-15T10:51:31.594Z,1.45
2023-05-15T10:54:03.677Z,1.45
2023-05-15T10:56:32.569Z,1.25
2023-05-15T10:59:07.021Z,1.55
2023-05-15T11:01:36.170Z,1.42
2023-05-15T11:04:11.464Z,1.40
2023-05-15T11:06:40.290Z,1.48
2023-05-15T11:09:28.130Z,1.17
2023-05-15T11:11:58.622Z,1.20
2023-05-15T11:14:27.353Z,1.27
2023-05-15T11:16:59.044Z,1.27
2023-05-15T11:19:33.501Z,1.70
2023-05-15T11:22:02.819Z,1.33
2023-05-15T11:24:31.653Z,1.42
2023-05-15T11:27:02.664Z,0.90
2023-05-15T11:29:31.528Z,1.10
2023-05-15T11:31:59.888Z,1.27
2023-05-15T11:34:31.844Z,1.05
2023-05-15T11:37:01.156Z,1.05
2023-05-15T11:39:29.550Z,0.82
2023-05-15T11:41:59.244Z,0.98
2023-05-15T11:44:30.129Z,1.30
2023-05-15T11:46:58.579Z,1.80
2023-05-15T11:49:26.981Z,1.38
2023-05-15T11:51:56.006Z,1.00
2023-05-15T11:54:25.890Z,0.98
2023-05-15T11:56:58.735Z,0.77
2023-05-15T11:59:32.016Z,1.33
2023-05-15T12:02:01.389Z,0.88
2023-05-15T12:04:29.782Z,1.50
2023-05-15T12:06:58.293Z,1.00
2023-05-15T12:09:27.705Z,1.25
2023-05-15T12:11:56.571Z,1.35
2023-05-15T12:14:33.926Z,1.00
2023-05-15T12:17:04.308Z,0.75
2023-05-15T12:19:33.398Z,0.70
2023-05-15T12:22:01.697Z,0.60
2023-05-15T12:24:30.045Z,0.80
2023-05-15T12:26:58.439Z,0.68
2023-05-15T12:29:27.835Z,1.10
2023-05-15T12:31:57.688Z,1.17
2023-05-15T12:34:26.120Z,0.90
2023-05-15T12:36:54.428Z,0.93
2023-05-15T12:39:22.790Z,0.88
2023-05-15T12:41:54.162Z,1.67
2023-05-15T12:44:22.580Z,1.48
2023-05-15T12:46:51.104Z,1.23
2023-05-15T12:49:24.266Z,1.08
2023-05-15T12:51:52.646Z,0.82
2023-05-15T12:54:21.495Z,1.00
2023-05-15T12:56:50.188Z,1.58
2023-05-15T12:59:18.552Z,1.40
2023-05-15T13:01:46.923Z,0.88
2023-05-15T13:04:15.509Z,0.70
2023-05-15T13:06:47.859Z,1.15
2023-05-15T13:09:16.667Z,0.70
2023-05-15T13:11:45.964Z,1.02
2023-05-15T13:14:17.641Z,1.88
2023-05-15T13:16:49.402Z,0.82
2023-05-15T13:19:17.967Z,1.38
2023-05-15T13:21:50.795Z,1.05
2023-05-15T13:24:19.390Z,0.77
2023-05-15T13:26:47.739Z,0.70
2023-05-15T13:29:16.203Z,0.70
2023-05-15T13:31:44.861Z,1.05
2023-05-15T13:34:13.191Z,1.05
2023-05-15T13:36:41.562Z,0.75
2023-05-15T13:39:11.249Z,1.25
2023-05-15T13:41:39.682Z,0.95
2023-05-15T13:44:08.042Z,0.88
2023-05-15T13:46:36.404Z,1.10
2023-05-15T13:49:05.793Z,1.08
2023-05-15T13:51:34.806Z,1.08
2023-05-15T13:54:03.200Z,0.98
2023-05-15T13:56:32.981Z,0.80
2023-05-15T13:59:01.315Z,1.02
2023-05-15T14:01:29.686Z,1.10
2023-05-15T14:03:58.344Z,1.00
2023-05-15T14:06:27.811Z,0.52
2023-05-15T14:08:56.177Z,0.80
2023-05-15T14:11:24.532Z,0.60
2023-05-15T14:13:54.222Z,1.02
2023-05-15T14:16:22.683Z,0.50
2023-05-15T14:18:51.094Z,0.65
2023-05-15T14:21:19.485Z,0.90
2023-05-15T14:23:47.858Z,0.75
2023-05-15T14:26:16.363Z,0.80
2023-05-15T14:28:44.698Z,0.77
2023-05-15T14:31:14.561Z,0.73
2023-05-15T14:33:42.882Z,0.82
2023-05-15T14:36:11.315Z,0.45
2023-05-15T14:38:39.855Z,0.80
2023-05-15T14:41:08.151Z,0.73
2023-05-15T14:43:36.480Z,0.82
2023-05-15T14:46:05.039Z,0.45
2023-05-15T14:48:35.010Z,0.80
2023-05-15T14:51:03.368Z,0.85
2023-05-15T14:53:31.866Z,0.80
2023-05-15T14:56:00.193Z,1.45
2023-05-15T14:58:29.170Z,0.52
2023-05-15T15:00:57.553Z,1.00
2023-05-15T15:03:28.614Z,0.52
2023-05-15T15:05:59.310Z,0.60
2023-05-15T15:08:27.739Z,0.70
2023-05-15T15:10:56.121Z,0.80
2023-05-15T15:13:26.522Z,0.70
2023-05-15T15:15:54.942Z,0.47
2023-05-15T15:18:23.309Z,0.50
2023-05-15T15:20:51.608Z,0.50
2023-05-15T15:23:21.427Z,0.50
2023-05-15T15:25:49.800Z,0.70
2023-05-15T15:28:18.324Z,0.52
2023-05-15T15:30:46.651Z,0.70
2023-05-15T15:33:14.978Z,0.50
2023-05-15T15:35:43.347Z,1.13
2023-05-15T15:38:13.305Z,0.90
2023-05-15T15:40:43.664Z,0.88
2023-05-15T15:43:12.024Z,0.77
2023-05-15T15:45:40.500Z,0.93
2023-05-15T15:48:08.938Z,0.70
2023-05-15T15:50:37.414Z,0.70
2023-05-15T15:53:05.747Z,0.85
2023-05-15T15:55:34.115Z,0.88
2023-05-15T15:58:04.368Z,0.93
2023-05-15T16:00:32.739Z,0.75
2023-05-15T16:03:01.146Z,0.63
2023-05-15T16:05:29.641Z,0.77
2023-05-15T16:07:57.977Z,0.80
2023-05-15T16:10:26.326Z,0.65
2023-05-15T16:12:54.603Z,1.10
2023-05-15T16:15:24.523Z,0.88
2023-05-15T16:17:54.744Z,0.57
2023-05-15T16:20:23.494Z,0.90
2023-05-15T16:22:51.890Z,1.00
2023-05-15T16:25:20.269Z,0.90
2023-05-15T16:27:48.645Z,0.57
2023-05-15T16:30:17.123Z,0.82
2023-05-15T16:32:48.552Z,0.70
2023-05-15T16:35:17.096Z,0.60
2023-05-15T16:37:45.463Z,0.90
2023-05-15T16:40:14.273Z,0.98
2023-05-15T16:42:43.082Z,0.43
2023-05-15T16:45:11.702Z,0.82
2023-05-15T16:47:41.405Z,0.88
2023-05-15T16:50:11.607Z,0.82
2023-05-15T16:52:45.375Z,0.70
2023-05-15T16:55:15.287Z,0.45
2023-05-15T16:57:43.703Z,0.60
2023-05-15T17:00:13.012Z,0.50
2023-05-15T17:02:41.788Z,0.50
2023-05-15T17:05:12.554Z,0.65
2023-05-15T17:07:40.871Z,0.40
2023-05-15T17:10:10.144Z,0.40
2023-05-15T17:12:38.622Z,0.65
2023-05-15T17:15:07.677Z,0.47
2023-05-15T17:17:36.245Z,0.70
2023-05-15T17:20:04.926Z,0.70
2023-05-15T17:22:34.654Z,0.30
2023-05-15T17:25:04.099Z,0.40
2023-05-15T17:27:32.457Z,0.25
2023-05-15T17:30:00.839Z,0.85
2023-05-15T17:32:30.177Z,0.52
2023-05-15T17:34:58.506Z,0.60
2023-05-15T17:37:26.790Z,0.70
2023-05-15T17:39:56.564Z,0.60
2023-05-15T17:42:25.207Z,0.30
2023-05-15T17:44:53.491Z,0.40
2023-05-15T17:47:21.847Z,0.50
2023-05-15T17:49:50.199Z,0.57
2023-05-15T17:52:18.545Z,0.70
2023-05-15T17:54:46.898Z,0.50
2023-05-15T17:57:16.539Z,0.70
2023-05-15T17:59:44.913Z,0.98
2023-05-15T18:02:13.240Z,0.70
2023-05-15T18:04:41.639Z,0.60
2023-05-15T18:07:09.979Z,0.82
2023-05-15T18:09:39.399Z,0.95
2023-05-15T18:12:08.145Z,1.05
2023-05-15T18:14:39.253Z,0.60
2023-05-15T18:17:08.790Z,0.47
2023-05-15T18:19:39.022Z,0.57
2023-05-15T18:22:07.417Z,0.70
2023-05-15T18:24:35.787Z,0.75
2023-05-15T18:27:04.474Z,0.70
2023-05-15T18:29:32.846Z,0.93
2023-05-15T18:32:02.538Z,0.93
2023-05-15T18:34:30.939Z,0.90
2023-05-15T18:36:59.303Z,0.57
2023-05-15T18:39:27.693Z,0.55
2023-05-15T18:41:56.016Z,0.70
2023-05-15T18:44:24.331Z,0.60
2023-05-15T18:46:52.759Z,0.80
2023-05-15T18:49:22.532Z,0.70
2023-05-15T18:51:50.886Z,0.70
2023-05-15T18:54:19.229Z,0.90
2023-05-15T18:56:47.601Z,0.95
2023-05-15T18:59:15.922Z,0.68
2023-05-15T19:01:45.153Z,0.85
2023-05-15T19:04:13.683Z,0.63
2023-05-15T19:06:44.959Z,0.93
2023-05-15T19:09:13.440Z,0.90
2023-05-15T19:11:42.997Z,1.20
2023-05-15T19:14:15.368Z,1.05
2023-05-15T19:16:43.762Z,1.30
2023-05-15T19:19:12.416Z,1.08
2023-05-15T19:21:41.076Z,1.00
2023-05-15T19:24:10.927Z,0.75
2023-05-15T19:26:39.327Z,0.75
2023-05-15T19:29:07.627Z,0.85
2023-05-15T19:31:37.371Z,0.70
2023-05-15T19:34:05.885Z,1.00
2023-05-15T19:36:34.210Z,1.23
2023-05-15T19:39:02.601Z,0.90
2023-05-15T19:41:32.276Z,0.77
2023-05-15T19:44:00.635Z,0.77
2023-05-15T19:46:29.077Z,1.48
2023-05-15T19:48:57.426Z,1.55
2023-05-15T19:51:25.744Z,1.63
2023-05-15T19:53:54.064Z,1.50
2023-05-15T19:56:22.821Z,1.02
2023-05-15T19:58:52.626Z,1.33
2023-05-15T20:01:20.946Z,1.15
2023-05-15T20:03:49.379Z,2.67
2023-05-15T20:06:17.880Z,2.85
2023-05-15T20:08:46.221Z,2.88
2023-05-15T20:11:14.546Z,2.78
2023-05-15T20:13:42.915Z,2.67
2023-05-15T20:16:12.776Z,2.03
2023-05-15T20:18:41.700Z,2.08
2023-05-15T20:21:10.070Z,1.17
2023-05-15T20:23:38.392Z,1.88
2023-05-15T20:26:06.708Z,1.38
2023-05-15T20:28:35.099Z,1.02
2023-05-15T20:31:03.441Z,1.05
2023-05-15T20:33:33.299Z,1.35
2023-05-15T20:36:02.311Z,2.17
2023-05-15T20:38:30.670Z,0.70
2023-05-15T20:40:59.012Z,0.73
2023-05-15T20:43:27.365Z,1.25
2023-05-15T20:45:55.697Z,0.95
2023-05-15T20:48:24.031Z,0.65
2023-05-15T20:50:54.210Z,0.90
2023-05-15T20:53:22.541Z,0.70
2023-05-15T20:55:50.854Z,0.60
2023-05-15T20:58:19.172Z,0.80
2023-05-15T21:00:47.578Z,0.77
2023-05-15T21:03:16.165Z,0.82
2023-05-15T21:05:44.736Z,0.70
2023-05-15T21:08:14.512Z,0.90
2023-05-15T21:10:42.842Z,1.35
2023-05-15T21:13:11.168Z,0.70
2023-05-15T21:15:39.531Z,0.35
2023-05-15T21:18:07.897Z,0.75
2023-05-15T21:20:36.239Z,1.20
2023-05-15T21:23:04.573Z,0.90
2023-05-15T21:25:34.388Z,0.77
2023-05-15T21:28:02.661Z,0.50
2023-05-15T21:30:31.291Z,0.80
2023-05-15T21:32:59.666Z,0.80
2023-05-15T21:35:29.042Z,0.50
2023-05-15T21:37:57.402Z,0.73
2023-05-15T21:40:25.940Z,0.70
2023-05-15T21:42:55.919Z,0.88
2023-05-15T21:45:24.200Z,1.33
2023-05-15T21:47:53.232Z,0.70
2023-05-15T21:50:21.535Z,0.50
2023-05-15T21:52:51.567Z,0.80
2023-05-15T21:55:20.256Z,1.02
2023-05-15T21:57:48.628Z,0.60
2023-05-15T22:00:18.764Z,0.55
2023-05-15T22:02:47.198Z,0.80
2023-05-15T22:05:16.112Z,0.70
2023-05-15T22:07:44.597Z,0.82
2023-05-15T22:10:16.270Z,0.73
2023-05-15T22:12:44.836Z,0.60
2023-05-15T22:15:14.487Z,0.90
2023-05-15T22:17:44.174Z,1.00
2023-05-15T22:20:13.933Z,0.82
2023-05-15T22:22:44.115Z,1.25
2023-05-15T22:25:12.504Z,1.02
2023-05-15T22:27:40.784Z,0.70
2023-05-15T22:30:09.733Z,1.40
2023-05-15T22:32:38.129Z,0.70
2023-05-15T22:35:09.086Z,0.70
2023-05-15T22:37:37.391Z,1.42
2023-05-15T22:40:07.522Z,1.00
2023-05-15T22:42:35.825Z,1.20
2023-05-15T22:45:04.290Z,1.23
2023-05-15T22:47:33.149Z,0.50
2023-05-15T22:50:01.610Z,1.10
2023-05-15T22:52:31.269Z,1.00
2023-05-15T22:54:59.569Z,0.95
2023-05-15T22:57:28.293Z,0.95
2023-05-15T22:59:56.607Z,1.13
2023-05-15T23:02:24.947Z,1.00
2023-05-15T23:04:53.308Z,1.00
2023-05-15T23:07:21.656Z,1.00
2023-05-15T23:09:52.865Z,1.15
2023-05-15T23:12:21.145Z,1.10
2023-05-15T23:14:49.468Z,0.68
2023-05-15T23:17:17.741Z,0.98
2023-05-15T23:19:46.513Z,0.60
2023-05-15T23:22:14.852Z,0.60
2023-05-15T23:24:43.122Z,0.40
2023-05-15T23:27:12.733Z,0.85
2023-05-15T23:29:41.085Z,0.63
2023-05-15T23:32:09.689Z,0.88
2023-05-15T23:34:37.981Z,0.82
2023-05-15T23:37:06.433Z,0.73
2023-05-15T23:39:36.104Z,0.80
2023-05-15T23:42:04.463Z,0.65
2023-05-15T23:44:34.142Z,1.17
2023-05-15T23:47:02.544Z,1.13
2023-05-15T23:49:32.897Z,0.70
2023-05-15T23:52:01.332Z,1.38
2023-05-15T23:54:29.599Z,0.85
2023-05-15T23:56:57.905Z,0.80
2023-05-15T23:59:26.194Z,0.55
